This is the latest recevied weather packets stored in our database for station/object 9W2CHF-4. If no packets are shown the sender has not sent any weather packets the latest 1 day(s).
| Time | Temp. | Humidity | Pressure | Rain* | Wind** | Luminosity | Snow |
|---|---|---|---|---|---|---|---|
| 1778271824 | 31.67° C | 86% | 1009.2 hPa | - | - | - | - |
| 1778269124 | 31.11° C | 90% | 1009 hPa | - | - | - | - |
| 1778267324 | 31.67° C | 86% | 1009 hPa | - | - | - | - |
| 1778266424 | 31.67° C | 89% | 1009.1 hPa | - | - | - | - |
| 1778265524 | 31.11° C | 89% | 1009.3 hPa | - | - | - | - |
| 1778264624 | 31.67° C | 89% | 1009.5 hPa | - | - | - | - |
| 1778263724 | 32.22° C | 85% | 1010 hPa | - | - | - | - |
| 1778253822 | 31.67° C | 89% | 1011.7 hPa | - | - | - | - |
| 1778252922 | 31.67° C | 89% | 1011.7 hPa | - | - | - | - |
| 1778252022 | 31.67° C | 88% | 1011.8 hPa | - | - | - | - |
| 1778251122 | 32.22° C | 89% | 1011.7 hPa | - | - | - | - |
| 1778250222 | 31.67° C | 93% | 1011.7 hPa | - | - | - | - |
| 1778249322 | 31.11° C | 94% | 1011.6 hPa | - | - | - | - |
| 1778248422 | 31.67° C | 88% | 1011.4 hPa | - | - | - | - |
| 1778243921 | 31.67° C | 85% | 1010.6 hPa | - | - | - | - |
| 1778240320 | 31.11° C | 86% | 1009.6 hPa | - | - | - | - |
| 1778239419 | 31.11° C | 86% | 1009.2 hPa | - | - | - | - |
| 1778233118 | 32.22° C | 75% | 1008.5 hPa | - | - | - | - |
| 1778232218 | 32.22° C | 77% | 1008.3 hPa | - | - | - | - |
| 1778231318 | 32.78° C | 88% | 1008.4 hPa | - | - | - | - |
| 1778229525 | 32.78° C | 91% | 1008.5 hPa | - | - | - | - |
| 1778228625 | 32.22° C | 92% | 1008.4 hPa | - | - | - | - |
| 1778227725 | 32.78° C | 90% | 1008.1 hPa | - | - | - | - |
| 1778223223 | 32.22° C | 93% | 1008.1 hPa | - | - | - | - |
| 1778222323 | 32.22° C | 94% | 1008.7 hPa | - | - | - | - |
* Rain since midnight (hover to see other rain measurements)
** Current wind speed in m/s (hover to see current wind gust speed)